TAF Text Data
IDs:
Format:
Raw Decoded Include METAR

Data at: 1412 UTC 10 Jul 2020

KCHA 101130Z 1012/1112 00000KT P6SM SCT080
  FM101800 26005KT P6SM SCT080
  FM110300 31005KT P6SM FEW100
  FM110600 34006KT P6SM FEW180